createdAt,value
2023-03-30T00:00:57.073Z,10.30
2023-03-30T00:03:24.150Z,11.17
2023-03-30T00:05:57.172Z,10.43
2023-03-30T00:08:28.874Z,10.67
2023-03-30T00:11:07.911Z,9.93
2023-03-30T00:13:37.292Z,10.37
2023-03-30T00:16:06.320Z,9.90
2023-03-30T00:18:34.380Z,9.60
2023-03-30T00:21:02.998Z,10.13
2023-03-30T00:23:30.833Z,9.40
2023-03-30T00:25:57.467Z,9.20
2023-03-30T00:28:25.385Z,9.53
2023-03-30T00:30:53.517Z,10.13
2023-03-30T00:33:27.522Z,10.30
2023-03-30T00:36:00.734Z,9.97
2023-03-30T00:38:27.941Z,9.63
2023-03-30T00:40:57.246Z,9.30
2023-03-30T00:43:25.467Z,9.73
2023-03-30T00:45:52.144Z,9.20
2023-03-30T00:48:32.480Z,9.17
2023-03-30T00:51:09.596Z,8.77
2023-03-30T00:53:41.347Z,9.17
2023-03-30T00:56:10.940Z,9.03
2023-03-30T00:58:40.878Z,8.57
2023-03-30T01:01:10.803Z,8.70
2023-03-30T01:03:45.604Z,8.57
2023-03-30T01:06:14.160Z,8.30
2023-03-30T01:08:42.482Z,8.00
2023-03-30T01:11:08.992Z,8.67
2023-03-30T01:13:39.726Z,8.43
2023-03-30T01:16:33.325Z,9.57
2023-03-30T01:19:37.835Z,7.80
2023-03-30T01:22:19.492Z,7.67
2023-03-30T01:25:20.550Z,8.33
2023-03-30T01:28:04.486Z,8.33
2023-03-30T01:30:38.913Z,7.60
2023-03-30T01:33:51.609Z,8.37
2023-03-30T01:36:18.041Z,8.23
2023-03-30T01:38:44.393Z,7.60
2023-03-30T01:41:26.625Z,7.60
2023-03-30T01:44:02.173Z,6.90
2023-03-30T01:46:34.703Z,7.27
2023-03-30T01:49:26.054Z,7.10
2023-03-30T01:52:02.527Z,6.63
2023-03-30T01:54:38.962Z,7.10
2023-03-30T01:57:15.339Z,7.10
2023-03-30T01:59:58.984Z,6.97
2023-03-30T02:02:29.772Z,6.33
2023-03-30T02:04:59.241Z,6.30
2023-03-30T02:07:32.040Z,6.90
2023-03-30T02:10:03.114Z,6.37
2023-03-30T02:12:30.817Z,6.30
2023-03-30T02:15:02.077Z,6.03
2023-03-30T02:17:30.489Z,6.70
2023-03-30T02:19:59.048Z,6.07
2023-03-30T02:22:27.152Z,5.87
2023-03-30T02:24:56.272Z,6.27
2023-03-30T02:27:24.995Z,6.37
2023-03-30T02:29:52.455Z,6.10
2023-03-30T02:32:32.471Z,6.57
2023-03-30T02:35:30.802Z,5.40
2023-03-30T02:38:00.667Z,6.30
2023-03-30T02:40:48.830Z,5.53
2023-03-30T02:43:24.381Z,5.73
2023-03-30T02:46:11.441Z,5.20
2023-03-30T02:49:07.423Z,5.80
2023-03-30T02:51:49.097Z,5.40
2023-03-30T02:54:48.817Z,5.57
2023-03-30T02:57:55.668Z,4.73
2023-03-30T03:01:04.796Z,4.30
2023-03-30T03:03:46.193Z,4.23
2023-03-30T03:06:15.155Z,3.90
2023-03-30T03:08:50.443Z,3.70
2023-03-30T03:11:22.636Z,3.37
2023-03-30T03:13:49.865Z,3.77
2023-03-30T03:16:17.343Z,3.53
2023-03-30T03:19:05.628Z,3.47
2023-03-30T03:21:32.165Z,3.40
2023-03-30T03:23:59.015Z,3.37
2023-03-30T03:26:37.909Z,3.50
2023-03-30T03:29:04.461Z,3.50
2023-03-30T03:31:31.147Z,3.70
2023-03-30T03:33:59.237Z,3.63
2023-03-30T03:36:44.193Z,3.47
2023-03-30T03:39:10.715Z,3.67
2023-03-30T03:41:37.505Z,3.90
2023-03-30T03:44:03.936Z,3.53
2023-03-30T03:46:30.652Z,3.40
2023-03-30T03:48:57.116Z,3.90
2023-03-30T03:51:24.756Z,3.40
2023-03-30T03:53:51.476Z,3.60
2023-03-30T03:56:17.907Z,3.80
2023-03-30T03:58:44.393Z,3.60
2023-03-30T04:01:14.400Z,3.87
2023-03-30T04:03:41.701Z,3.80
2023-03-30T04:06:08.221Z,4.03
2023-03-30T04:08:35.776Z,4.20
2023-03-30T04:11:12.047Z,4.30
2023-03-30T04:14:04.978Z,3.83
2023-03-30T04:16:39.129Z,3.90
2023-03-30T04:19:27.886Z,3.90
2023-03-30T04:22:06.290Z,3.93
2023-03-30T04:24:53.934Z,4.13
2023-03-30T04:27:39.139Z,4.07
2023-03-30T04:30:30.562Z,3.87
2023-03-30T04:33:37.956Z,4.23
2023-03-30T04:36:25.930Z,4.13
2023-03-30T04:39:06.960Z,4.23
2023-03-30T04:41:56.256Z,4.00
2023-03-30T04:44:36.132Z,4.30
2023-03-30T04:47:20.762Z,4.67
2023-03-30T04:50:10.706Z,4.70
2023-03-30T04:52:55.728Z,4.63
2023-03-30T04:55:42.774Z,4.13
2023-03-30T04:58:29.304Z,4.67
2023-03-30T05:01:15.874Z,3.93
2023-03-30T05:04:00.977Z,3.97
2023-03-30T05:06:49.758Z,4.50
2023-03-30T05:09:35.546Z,4.20
2023-03-30T05:12:15.637Z,4.10
2023-03-30T05:14:50.684Z,4.13
2023-03-30T05:17:35.248Z,4.03
2023-03-30T05:20:22.382Z,4.13
2023-03-30T05:23:07.382Z,3.43
2023-03-30T05:25:53.246Z,3.67
2023-03-30T05:28:38.258Z,4.10
2023-03-30T05:31:33.926Z,3.70
2023-03-30T05:34:06.630Z,3.63
2023-03-30T05:36:45.367Z,3.97
2023-03-30T05:39:25.927Z,3.70
2023-03-30T05:42:04.260Z,3.47
2023-03-30T05:44:41.548Z,3.80
2023-03-30T05:47:28.524Z,3.60
2023-03-30T05:50:14.298Z,3.50
2023-03-30T05:52:53.347Z,3.67
2023-03-30T05:55:37.441Z,3.40
2023-03-30T05:58:27.472Z,3.40
2023-03-30T06:01:09.296Z,3.47
2023-03-30T06:03:39.798Z,3.50
2023-03-30T06:06:09.215Z,3.27
2023-03-30T06:08:36.639Z,3.00
2023-03-30T06:11:06.081Z,3.40
2023-03-30T06:13:43.743Z,3.23
2023-03-30T06:16:10.862Z,3.10
2023-03-30T06:18:38.422Z,3.30
2023-03-30T06:21:08.550Z,3.07
2023-03-30T06:23:53.661Z,2.80
2023-03-30T06:26:41.185Z,2.87
2023-03-30T06:29:07.704Z,3.07
2023-03-30T06:31:34.510Z,3.10
2023-03-30T06:34:33.335Z,2.73
2023-03-30T06:37:01.077Z,2.70
2023-03-30T06:39:28.217Z,2.57
2023-03-30T06:41:54.666Z,2.50
2023-03-30T06:44:34.277Z,2.50
2023-03-30T06:47:05.500Z,2.50
2023-03-30T06:49:32.724Z,2.37
2023-03-30T06:52:22.567Z,2.67
2023-03-30T06:54:49.557Z,2.50
2023-03-30T06:57:16.290Z,2.83
2023-03-30T06:59:42.919Z,2.30
2023-03-30T07:02:30.157Z,2.97
2023-03-30T07:05:10.096Z,2.67
2023-03-30T07:07:46.381Z,2.80
2023-03-30T07:10:12.868Z,2.70
2023-03-30T07:12:40.781Z,2.90
2023-03-30T07:15:08.820Z,3.37
2023-03-30T07:17:36.494Z,2.50
2023-03-30T07:20:05.855Z,2.73
2023-03-30T07:22:33.629Z,2.47
2023-03-30T07:25:04.667Z,2.73
2023-03-30T07:27:31.360Z,2.57
2023-03-30T07:30:10.187Z,2.50
2023-03-30T07:32:42.452Z,3.10
2023-03-30T07:35:09.534Z,2.60
2023-03-30T07:37:39.817Z,2.70
2023-03-30T07:40:10.499Z,3.10
2023-03-30T07:42:39.852Z,6.80
2023-03-30T07:45:07.688Z,3.50
2023-03-30T07:47:34.396Z,2.53
2023-03-30T07:50:04.016Z,2.33
2023-03-30T07:52:31.145Z,3.27
2023-03-30T07:55:02.768Z,2.87
2023-03-30T07:57:52.552Z,2.80
2023-03-30T08:00:20.736Z,2.60
2023-03-30T08:03:06.095Z,2.80
2023-03-30T08:05:32.663Z,2.60
2023-03-30T08:08:07.939Z,2.70
2023-03-30T08:10:38.243Z,2.47
2023-03-30T08:13:04.706Z,2.60
2023-03-30T08:15:38.188Z,2.40
2023-03-30T08:18:08.262Z,2.90
2023-03-30T08:20:37.922Z,3.07
2023-03-30T08:23:05.393Z,2.77
2023-03-30T08:25:32.359Z,3.00
2023-03-30T08:27:59.516Z,2.63
2023-03-30T08:30:29.938Z,3.03
2023-03-30T08:32:58.648Z,2.70
2023-03-30T08:35:26.072Z,2.43
2023-03-30T08:37:52.571Z,2.10
2023-03-30T08:40:19.963Z,2.63
2023-03-30T08:43:15.089Z,2.87
2023-03-30T08:45:43.136Z,2.80
2023-03-30T08:48:22.675Z,2.40
2023-03-30T08:51:05.796Z,2.80
2023-03-30T08:53:34.072Z,2.70
2023-03-30T08:56:15.423Z,3.17
2023-03-30T08:58:46.286Z,3.03
2023-03-30T09:01:23.020Z,2.80
2023-03-30T09:03:59.459Z,2.87
2023-03-30T09:06:50.136Z,2.80
2023-03-30T09:09:19.925Z,2.77
2023-03-30T09:11:53.886Z,3.07
2023-03-30T09:14:34.164Z,3.37
2023-03-30T09:17:12.014Z,3.10
2023-03-30T09:19:54.764Z,3.70
2023-03-30T09:22:23.954Z,3.20
2023-03-30T09:24:51.473Z,3.57
2023-03-30T09:27:39.260Z,3.67
2023-03-30T09:30:18.123Z,3.80
2023-03-30T09:32:52.061Z,3.50
2023-03-30T09:35:24.840Z,3.70
2023-03-30T09:37:51.282Z,3.40
2023-03-30T09:40:24.753Z,3.77
2023-03-30T09:43:25.225Z,3.50
2023-03-30T09:45:52.438Z,3.60
2023-03-30T09:48:19.007Z,3.83
2023-03-30T09:50:46.749Z,3.67
2023-03-30T09:53:34.780Z,3.37
2023-03-30T09:56:10.294Z,3.87
2023-03-30T09:58:37.939Z,3.77
2023-03-30T10:01:18.374Z,3.10
2023-03-30T10:03:47.140Z,2.80
2023-03-30T10:06:19.144Z,3.63
2023-03-30T10:08:55.365Z,4.03
2023-03-30T10:11:38.735Z,3.70
2023-03-30T10:14:11.247Z,3.43
2023-03-30T10:16:37.784Z,3.97
2023-03-30T10:19:18.625Z,3.87
2023-03-30T10:21:46.928Z,3.30
2023-03-30T10:24:28.492Z,3.67
2023-03-30T10:27:13.226Z,3.80
2023-03-30T10:29:48.629Z,4.27
2023-03-30T10:32:21.793Z,4.23
2023-03-30T10:34:54.210Z,4.80
2023-03-30T10:37:39.741Z,4.83
2023-03-30T10:40:18.456Z,4.93
2023-03-30T10:42:47.413Z,3.50
2023-03-30T10:45:19.722Z,3.80
2023-03-30T10:48:09.986Z,3.93
2023-03-30T10:50:56.322Z,3.37
2023-03-30T10:53:47.218Z,2.90
2023-03-30T10:56:27.740Z,2.60
2023-03-30T10:59:17.958Z,2.53
2023-03-30T11:02:35.565Z,1.90
2023-03-30T11:05:43.756Z,2.40
2023-03-30T11:08:51.857Z,2.43
2023-03-30T11:11:22.754Z,2.27
2023-03-30T11:14:04.323Z,2.70
2023-03-30T11:16:57.850Z,2.47
2023-03-30T11:19:31.557Z,3.00
2023-03-30T11:22:36.628Z,3.13
2023-03-30T11:25:19.027Z,2.70
2023-03-30T11:27:57.843Z,2.90
2023-03-30T11:30:30.142Z,3.47
2023-03-30T11:33:16.101Z,3.23
2023-03-30T11:36:06.503Z,2.97
2023-03-30T11:38:55.669Z,3.50
2023-03-30T11:41:36.679Z,3.20
2023-03-30T11:44:03.229Z,3.40
2023-03-30T11:46:45.688Z,3.00
2023-03-30T11:49:36.375Z,3.10
2023-03-30T11:52:23.693Z,2.73
2023-03-30T11:55:04.229Z,3.03
2023-03-30T11:58:00.729Z,2.90
2023-03-30T12:00:45.120Z,2.77
2023-03-30T12:03:40.989Z,2.53
2023-03-30T12:06:27.305Z,2.40
2023-03-30T12:09:21.968Z,2.20
2023-03-30T12:12:15.631Z,2.10
2023-03-30T12:15:26.321Z,3.37
2023-03-30T12:18:14.517Z,2.77
2023-03-30T12:20:51.873Z,7.00
2023-03-30T12:23:33.689Z,4.20
2023-03-30T12:26:21.580Z,5.97
2023-03-30T12:29:26.276Z,3.40
2023-03-30T12:31:53.330Z,2.97
2023-03-30T12:34:21.441Z,2.20
2023-03-30T12:37:10.074Z,2.30
2023-03-30T12:39:59.785Z,2.40
2023-03-30T12:42:35.006Z,2.23
2023-03-30T12:45:07.718Z,2.50
2023-03-30T12:47:58.255Z,2.47
2023-03-30T12:50:46.406Z,2.27
2023-03-30T12:53:45.528Z,1.90
2023-03-30T12:56:28.897Z,2.10
2023-03-30T12:59:13.641Z,1.77
2023-03-30T13:02:20.348Z,1.80
2023-03-30T13:04:48.932Z,2.17
2023-03-30T13:07:23.559Z,2.47
2023-03-30T13:10:04.878Z,2.33
2023-03-30T13:12:35.234Z,1.70
2023-03-30T13:15:41.740Z,2.10
2023-03-30T13:18:11.588Z,2.33
2023-03-30T13:20:47.324Z,2.37
2023-03-30T13:23:14.145Z,2.47
2023-03-30T13:25:44.581Z,2.70
2023-03-30T13:28:45.578Z,2.63
2023-03-30T13:31:47.073Z,2.60
2023-03-30T13:34:44.970Z,2.83
2023-03-30T13:37:40.155Z,2.80
2023-03-30T13:40:27.703Z,2.50
2023-03-30T13:43:23.833Z,3.17
2023-03-30T13:46:13.204Z,3.17
2023-03-30T13:49:11.458Z,3.07
2023-03-30T13:51:42.364Z,4.70
2023-03-30T13:54:16.350Z,3.67
2023-03-30T13:56:48.374Z,3.00
2023-03-30T13:59:21.872Z,2.63
2023-03-30T14:01:53.726Z,2.70
2023-03-30T14:04:20.346Z,2.73
2023-03-30T14:06:51.240Z,3.13
2023-03-30T14:09:25.010Z,3.23
2023-03-30T14:11:59.672Z,2.17
2023-03-30T14:14:38.626Z,2.47
2023-03-30T14:17:23.811Z,2.47
2023-03-30T14:20:09.382Z,2.57
2023-03-30T14:22:40.911Z,2.10
2023-03-30T14:25:25.428Z,2.40
2023-03-30T14:27:51.883Z,2.73
2023-03-30T14:30:30.812Z,2.67
2023-03-30T14:33:17.165Z,2.77
2023-03-30T14:35:50.050Z,3.00
2023-03-30T14:38:23.868Z,2.50
2023-03-30T14:40:52.164Z,2.53
2023-03-30T14:43:24.899Z,2.57
2023-03-30T14:45:57.647Z,2.90
2023-03-30T14:48:34.163Z,3.07
2023-03-30T14:51:02.477Z,2.37
2023-03-30T14:53:30.991Z,2.80
2023-03-30T14:56:00.639Z,3.13
2023-03-30T14:58:31.097Z,2.40
2023-03-30T15:01:00.382Z,3.40
2023-03-30T15:03:34.568Z,3.00
2023-03-30T15:06:03.278Z,3.30
2023-03-30T15:08:39.345Z,2.67
2023-03-30T15:11:12.696Z,2.93
2023-03-30T15:13:43.340Z,3.60
2023-03-30T15:16:16.636Z,2.60
2023-03-30T15:18:43.352Z,3.13
2023-03-30T15:21:12.528Z,2.60
2023-03-30T15:23:43.095Z,2.60
2023-03-30T15:26:11.383Z,2.20
2023-03-30T15:28:48.643Z,3.13
2023-03-30T15:31:16.181Z,3.37
2023-03-30T15:33:51.954Z,2.50
2023-03-30T15:36:19.878Z,2.60
2023-03-30T15:38:49.282Z,2.30
2023-03-30T15:41:17.815Z,2.57
2023-03-30T15:43:54.730Z,2.60
2023-03-30T15:46:21.756Z,2.60
2023-03-30T15:48:50.657Z,2.70
2023-03-30T15:51:25.904Z,2.20
2023-03-30T15:53:56.790Z,1.90
2023-03-30T15:56:30.651Z,2.03
2023-03-30T15:58:58.621Z,1.90
2023-03-30T16:01:38.748Z,1.77
2023-03-30T16:04:05.849Z,1.57
2023-03-30T16:06:32.227Z,1.90
2023-03-30T16:08:59.006Z,2.20
2023-03-30T16:11:26.506Z,2.37
2023-03-30T16:13:53.937Z,2.30
2023-03-30T16:16:20.752Z,2.17
2023-03-30T16:18:47.277Z,2.17
2023-03-30T16:21:15.640Z,2.53
2023-03-30T16:23:42.117Z,2.70
2023-03-30T16:26:11.841Z,3.07
2023-03-30T16:28:40.021Z,3.03
2023-03-30T16:31:17.201Z,3.23
2023-03-30T16:33:43.873Z,3.60
2023-03-30T16:36:21.118Z,3.90
2023-03-30T16:38:48.076Z,3.43
2023-03-30T16:41:20.561Z,3.33
2023-03-30T16:43:47.827Z,3.10
2023-03-30T16:46:16.402Z,3.53
2023-03-30T16:48:43.038Z,3.17
2023-03-30T16:51:13.838Z,3.60
2023-03-30T16:53:41.396Z,3.40
2023-03-30T16:56:17.447Z,3.47
2023-03-30T16:58:44.188Z,3.10
2023-03-30T17:01:13.310Z,3.37
2023-03-30T17:03:40.205Z,3.30
2023-03-30T17:06:07.122Z,3.33
2023-03-30T17:08:34.029Z,2.90
2023-03-30T17:11:03.598Z,3.00
2023-03-30T17:13:31.783Z,3.00
2023-03-30T17:16:01.025Z,2.73
2023-03-30T17:18:28.940Z,3.10
2023-03-30T17:21:03.831Z,3.23
2023-03-30T17:23:32.228Z,2.90
2023-03-30T17:26:01.153Z,8.67
2023-03-30T17:28:33.730Z,3.50
2023-03-30T17:31:02.866Z,5.67
2023-03-30T17:33:31.749Z,7.57
2023-03-30T17:36:10.330Z,5.67
2023-03-30T17:38:36.925Z,2.90
2023-03-30T17:41:04.386Z,5.00
2023-03-30T17:43:30.986Z,7.17
2023-03-30T17:45:57.769Z,4.07
2023-03-30T17:48:25.152Z,7.77
2023-03-30T17:50:51.563Z,4.83
2023-03-30T17:53:20.165Z,3.67
2023-03-30T17:55:52.402Z,6.03
2023-03-30T17:58:25.484Z,3.80
2023-03-30T18:00:53.535Z,6.37
2023-03-30T18:03:22.267Z,6.67
2023-03-30T18:05:50.366Z,5.17
2023-03-30T18:08:21.284Z,3.43
2023-03-30T18:10:51.880Z,4.93
2023-03-30T18:13:20.002Z,3.80
2023-03-30T18:15:49.489Z,4.30
2023-03-30T18:18:23.038Z,5.83
2023-03-30T18:20:51.537Z,7.93
2023-03-30T18:23:18.721Z,5.97
2023-03-30T18:25:45.477Z,4.60
2023-03-30T18:28:23.110Z,5.63
2023-03-30T18:30:51.012Z,8.03
2023-03-30T18:33:17.724Z,8.43
2023-03-30T18:35:46.979Z,5.30
2023-03-30T18:38:15.382Z,5.77
2023-03-30T18:40:49.139Z,6.73
2023-03-30T18:43:16.218Z,9.00
2023-03-30T18:45:45.874Z,4.47
2023-03-30T18:48:14.739Z,4.60
2023-03-30T18:50:43.585Z,4.93
2023-03-30T18:53:12.529Z,4.73
2023-03-30T18:55:41.664Z,3.90
2023-03-30T18:58:20.680Z,3.10
2023-03-30T19:00:48.781Z,2.63
2023-03-30T19:03:16.701Z,3.37
2023-03-30T19:05:43.696Z,4.07
2023-03-30T19:08:15.304Z,2.40
2023-03-30T19:10:43.432Z,5.83
2023-03-30T19:13:14.585Z,2.83
2023-03-30T19:15:41.747Z,5.73
2023-03-30T19:18:08.691Z,3.27
2023-03-30T19:20:39.537Z,2.80
2023-03-30T19:23:06.648Z,3.27
2023-03-30T19:25:34.089Z,2.90
2023-03-30T19:28:04.352Z,2.60
2023-03-30T19:30:33.730Z,2.90
2023-03-30T19:33:04.683Z,2.50
2023-03-30T19:35:31.959Z,3.20
2023-03-30T19:37:58.792Z,2.77
2023-03-30T19:40:25.423Z,3.30
2023-03-30T19:42:52.034Z,3.13
2023-03-30T19:45:21.131Z,3.07
2023-03-30T19:47:47.642Z,3.33
2023-03-30T19:50:18.005Z,4.33
2023-03-30T19:52:50.649Z,3.07
2023-03-30T19:55:19.071Z,3.20
2023-03-30T19:57:45.942Z,3.37
2023-03-30T20:00:15.715Z,3.27
2023-03-30T20:02:45.691Z,2.83
2023-03-30T20:05:13.167Z,3.47
2023-03-30T20:07:40.908Z,3.30
2023-03-30T20:10:09.663Z,3.27
2023-03-30T20:12:36.170Z,3.20
2023-03-30T20:15:05.713Z,3.50
2023-03-30T20:17:33.927Z,3.40
2023-03-30T20:20:06.533Z,3.43
2023-03-30T20:22:34.915Z,3.43
2023-03-30T20:25:02.469Z,3.67
2023-03-30T20:27:29.484Z,3.47
2023-03-30T20:29:55.945Z,3.50
2023-03-30T20:32:23.297Z,3.30
2023-03-30T20:34:49.857Z,3.50
2023-03-30T20:37:16.658Z,3.77
2023-03-30T20:39:43.856Z,3.70
2023-03-30T20:42:10.918Z,4.13
2023-03-30T20:44:40.804Z,3.93
2023-03-30T20:47:08.773Z,4.20
2023-03-30T20:49:37.619Z,3.57
2023-03-30T20:52:04.785Z,4.00
2023-03-30T20:54:31.429Z,4.07
2023-03-30T20:56:58.435Z,4.07
2023-03-30T20:59:25.436Z,3.90
2023-03-30T21:01:52.060Z,3.77
2023-03-30T21:04:19.723Z,3.57
2023-03-30T21:06:46.817Z,4.20
2023-03-30T21:09:17.581Z,4.07
2023-03-30T21:11:44.300Z,3.83
2023-03-30T21:14:12.263Z,4.40
2023-03-30T21:16:41.809Z,4.43
2023-03-30T21:19:09.576Z,5.37
2023-03-30T21:21:37.643Z,6.50
2023-03-30T21:24:05.971Z,7.37
2023-03-30T21:26:32.719Z,6.00
2023-03-30T21:28:59.738Z,12.27
2023-03-30T21:31:26.300Z,5.87
2023-03-30T21:33:52.902Z,4.03
2023-03-30T21:36:19.425Z,6.90
2023-03-30T21:38:46.389Z,3.73
2023-03-30T21:41:15.801Z,5.30
2023-03-30T21:43:45.120Z,3.47
2023-03-30T21:46:14.851Z,4.47
2023-03-30T21:48:42.783Z,4.10
2023-03-30T21:51:13.678Z,5.10
2023-03-30T21:53:41.538Z,4.13
2023-03-30T21:56:09.338Z,4.90
2023-03-30T21:58:35.922Z,4.10
2023-03-30T22:01:11.788Z,3.97
2023-03-30T22:03:42.805Z,4.20
2023-03-30T22:06:12.724Z,4.80
2023-03-30T22:08:39.581Z,3.90
2023-03-30T22:11:10.361Z,4.47
2023-03-30T22:13:37.217Z,4.33
2023-03-30T22:16:11.190Z,3.83
2023-03-30T22:18:37.777Z,4.63
2023-03-30T22:21:07.102Z,4.37
2023-03-30T22:23:33.880Z,4.63
2023-03-30T22:26:00.639Z,4.37
2023-03-30T22:28:27.292Z,4.20
2023-03-30T22:30:54.155Z,4.10
2023-03-30T22:33:20.666Z,4.47
2023-03-30T22:35:48.289Z,4.43
2023-03-30T22:38:16.105Z,3.87
2023-03-30T22:40:42.579Z,3.77
2023-03-30T22:43:10.444Z,4.70
2023-03-30T22:45:37.288Z,3.87
2023-03-30T22:48:04.714Z,4.87
2023-03-30T22:50:31.619Z,4.50
2023-03-30T22:52:58.156Z,4.93
2023-03-30T22:55:25.278Z,4.60
2023-03-30T22:57:53.615Z,4.50
2023-03-30T23:00:21.095Z,4.83
2023-03-30T23:02:49.302Z,3.90
2023-03-30T23:05:17.004Z,5.20
2023-03-30T23:07:45.989Z,4.63
2023-03-30T23:10:15.284Z,4.63
2023-03-30T23:12:43.089Z,5.20
2023-03-30T23:15:11.194Z,4.33
2023-03-30T23:17:38.113Z,4.57
2023-03-30T23:20:06.621Z,4.10
2023-03-30T23:22:33.055Z,3.90
2023-03-30T23:24:59.644Z,3.60
2023-03-30T23:27:26.537Z,3.23
2023-03-30T23:29:53.338Z,3.80
2023-03-30T23:32:19.794Z,3.60
2023-03-30T23:34:46.517Z,3.47
2023-03-30T23:37:13.043Z,3.30
2023-03-30T23:39:39.521Z,3.17
2023-03-30T23:42:06.479Z,3.17
2023-03-30T23:44:33.305Z,3.37
2023-03-30T23:47:00.316Z,3.07
2023-03-30T23:49:27.214Z,2.90
2023-03-30T23:51:53.745Z,3.00
2023-03-30T23:54:20.352Z,2.87
2023-03-30T23:56:47.018Z,2.63
2023-03-30T23:59:13.581Z,2.70
